createdAt,value
2018-02-24T00:01:15.176Z,48.83
2018-02-24T00:03:44.287Z,48.81
2018-02-24T00:06:14.184Z,48.69
2018-02-24T00:08:43.518Z,48.84
2018-02-24T00:11:13.369Z,48.83
2018-02-24T00:13:42.465Z,48.86
2018-02-24T00:16:11.582Z,48.95
2018-02-24T00:18:40.690Z,48.97
2018-02-24T00:21:09.781Z,48.92
2018-02-24T00:23:38.900Z,49.03
2018-02-24T00:26:08.761Z,48.89
2018-02-24T00:28:37.881Z,48.73
2018-02-24T00:31:06.996Z,48.74
2018-02-24T00:33:36.863Z,48.85
2018-02-24T00:36:05.975Z,48.76
2018-02-24T00:38:35.076Z,49.00
2018-02-24T00:41:04.202Z,49.11
2018-02-24T00:43:33.291Z,49.04
2018-02-24T00:46:03.171Z,49.04
2018-02-24T00:48:32.254Z,49.11
2018-02-24T00:51:01.379Z,49.17
2018-02-24T00:53:30.495Z,49.31
2018-02-24T00:55:59.599Z,49.11
2018-02-24T00:58:29.457Z,48.98
2018-02-24T01:00:58.578Z,49.03
2018-02-24T01:03:27.701Z,49.33
2018-02-24T01:05:57.502Z,49.25
2018-02-24T01:08:26.613Z,49.26
2018-02-24T01:10:56.495Z,49.14
2018-02-24T01:13:26.355Z,49.02
2018-02-24T01:15:55.486Z,49.09
2018-02-24T01:18:24.598Z,48.87
2018-02-24T01:20:54.483Z,48.95
2018-02-24T01:23:23.594Z,49.05
2018-02-24T01:25:52.725Z,49.10
2018-02-24T01:28:21.828Z,49.09
2018-02-24T01:30:51.709Z,49.00
2018-02-24T01:33:20.801Z,49.03
2018-02-24T01:35:51.046Z,48.94
2018-02-24T01:38:20.159Z,49.15
2018-02-24T01:40:50.162Z,49.30
2018-02-24T01:43:19.275Z,49.34
2018-02-24T01:45:49.152Z,49.24
2018-02-24T01:48:18.313Z,49.12
2018-02-24T01:50:47.417Z,49.18
2018-02-24T01:53:16.537Z,49.10
2018-02-24T01:55:45.638Z,49.09
2018-02-24T01:58:15.525Z,48.97
2018-02-24T02:00:45.155Z,49.12
2018-02-24T02:03:14.245Z,49.16
2018-02-24T02:05:43.391Z,49.06
2018-02-24T02:08:12.495Z,48.84
2018-02-24T02:10:42.363Z,49.07
2018-02-24T02:13:11.485Z,49.35
2018-02-24T02:15:40.654Z,49.52
2018-02-24T02:18:09.754Z,49.35
2018-02-24T02:20:38.872Z,49.54
2018-02-24T02:23:07.987Z,49.50
2018-02-24T02:25:37.102Z,49.46
2018-02-24T02:28:06.233Z,49.44
2018-02-24T02:30:35.343Z,49.68
2018-02-24T02:33:04.458Z,49.69
2018-02-24T02:35:33.543Z,49.61
2018-02-24T02:38:02.663Z,50.02
2018-02-24T02:40:32.574Z,50.19
2018-02-24T02:43:01.665Z,50.08
2018-02-24T02:45:30.773Z,50.38
2018-02-24T02:48:00.641Z,50.31
2018-02-24T02:50:30.505Z,50.27
2018-02-24T02:53:00.385Z,50.23
2018-02-24T02:55:29.479Z,50.20
2018-02-24T02:58:02.811Z,50.01
2018-02-24T03:00:32.671Z,50.20
2018-02-24T03:03:01.789Z,50.36
2018-02-24T03:05:30.872Z,50.28
2018-02-24T03:07:59.995Z,50.25
2018-02-24T03:10:30.559Z,50.21
2018-02-24T03:12:59.661Z,50.17
2018-02-24T03:15:28.759Z,50.41
2018-02-24T03:17:57.869Z,50.74
2018-02-24T03:20:26.974Z,50.66
2018-02-24T03:22:56.086Z,50.65
2018-02-24T03:25:25.944Z,50.66
2018-02-24T03:27:55.059Z,50.58
2018-02-24T03:30:25.171Z,50.56
2018-02-24T03:32:54.281Z,50.86
2018-02-24T03:35:23.366Z,51.01
2018-02-24T03:37:52.487Z,51.10
2018-02-24T03:40:21.600Z,51.06
2018-02-24T03:42:50.673Z,50.94
2018-02-24T03:45:19.928Z,51.16
2018-02-24T03:47:49.025Z,51.19
2018-02-24T03:50:18.897Z,51.27
2018-02-24T03:52:48.815Z,51.22
2018-02-24T03:55:18.954Z,51.38
2018-02-24T03:57:48.081Z,51.15
2018-02-24T04:00:18.675Z,51.18
2018-02-24T04:02:47.774Z,51.24
2018-02-24T04:05:16.894Z,51.36
2018-02-24T04:07:47.366Z,51.41
2018-02-24T04:10:16.467Z,51.39
2018-02-24T04:12:45.582Z,51.45
2018-02-24T04:15:14.683Z,51.55
2018-02-24T04:17:43.799Z,51.53
2018-02-24T04:20:13.801Z,51.49
2018-02-24T04:22:42.927Z,51.57
2018-02-24T04:25:12.795Z,51.93
2018-02-24T04:27:41.871Z,51.85
2018-02-24T04:30:10.995Z,52.01
2018-02-24T04:32:40.097Z,52.00
2018-02-24T04:35:09.254Z,51.75
2018-02-24T04:37:38.332Z,51.67
2018-02-24T04:40:07.457Z,51.74
2018-02-24T04:42:36.562Z,52.04
2018-02-24T04:45:05.678Z,52.07
2018-02-24T04:47:34.792Z,52.03
2018-02-24T04:50:04.690Z,52.18
2018-02-24T04:52:35.299Z,52.30
2018-02-24T04:55:04.423Z,52.18
2018-02-24T04:57:33.524Z,52.21
2018-02-24T05:00:02.646Z,52.09
2018-02-24T05:02:31.757Z,52.42
2018-02-24T05:05:00.873Z,52.16
2018-02-24T05:07:30.953Z,52.15
2018-02-24T05:10:00.842Z,52.38
2018-02-24T05:12:29.953Z,52.29
2018-02-24T05:14:59.842Z,52.38
2018-02-24T05:17:29.654Z,52.23
2018-02-24T05:19:58.805Z,52.42
2018-02-24T05:22:27.895Z,52.58
2018-02-24T05:24:58.767Z,52.61
2018-02-24T05:27:27.898Z,52.62
2018-02-24T05:29:57.777Z,52.55
2018-02-24T05:32:26.905Z,53.07
2018-02-24T05:34:56.777Z,52.75
2018-02-24T05:37:27.565Z,52.82
2018-02-24T05:39:57.454Z,52.85
2018-02-24T05:42:26.554Z,52.93
2018-02-24T05:44:55.679Z,52.98
2018-02-24T05:47:25.546Z,53.14
2018-02-24T05:49:54.696Z,53.06
2018-02-24T05:52:24.547Z,52.94
2018-02-24T05:54:53.682Z,52.83
2018-02-24T05:57:22.806Z,52.89
2018-02-24T05:59:51.922Z,52.88
2018-02-24T06:02:21.061Z,52.60
2018-02-24T06:04:50.183Z,52.64
2018-02-24T06:07:20.054Z,52.62
2018-02-24T06:09:49.174Z,52.74
2018-02-24T06:12:18.303Z,52.73
2018-02-24T06:14:48.223Z,52.83
2018-02-24T06:17:17.323Z,52.87
2018-02-24T06:19:46.445Z,52.81
2018-02-24T06:22:15.561Z,52.64
2018-02-24T06:24:44.673Z,52.68
2018-02-24T06:27:13.790Z,52.65
2018-02-24T06:29:43.679Z,52.41
2018-02-24T06:32:12.806Z,52.68
2018-02-24T06:34:42.681Z,52.77
2018-02-24T06:37:12.703Z,52.93
2018-02-24T06:39:41.821Z,53.05
2018-02-24T06:42:10.941Z,53.33
2018-02-24T06:44:40.038Z,53.23
2018-02-24T06:47:09.148Z,53.08
2018-02-24T06:49:38.262Z,52.98
2018-02-24T06:52:08.147Z,52.96
2018-02-24T06:54:37.282Z,52.86
2018-02-24T06:57:06.407Z,53.03
2018-02-24T06:59:35.499Z,52.92
2018-02-24T07:02:05.404Z,52.90
2018-02-24T07:04:34.556Z,52.89
2018-02-24T07:07:03.692Z,52.70
2018-02-24T07:09:32.793Z,52.33
2018-02-24T07:12:01.927Z,52.39
2018-02-24T07:14:31.102Z,52.45
2018-02-24T07:17:00.211Z,52.34
2018-02-24T07:19:30.077Z,52.25
2018-02-24T07:21:59.200Z,52.18
2018-02-24T07:24:30.345Z,52.14
2018-02-24T07:26:59.469Z,52.04
2018-02-24T07:29:28.594Z,51.84
2018-02-24T07:31:58.636Z,51.87
2018-02-24T07:34:27.762Z,51.95
2018-02-24T07:36:56.882Z,51.56
2018-02-24T07:39:26.028Z,51.66
2018-02-24T07:41:55.168Z,51.37
2018-02-24T07:44:25.050Z,51.28
2018-02-24T07:46:54.201Z,51.05
2018-02-24T07:49:23.317Z,51.15
2018-02-24T07:51:52.439Z,51.15
2018-02-24T07:54:21.547Z,50.84
2018-02-24T07:56:51.441Z,51.07
2018-02-24T07:59:20.573Z,50.71
2018-02-24T08:01:50.468Z,50.41
2018-02-24T08:04:19.599Z,50.02
2018-02-24T08:06:49.463Z,50.17
2018-02-24T08:09:18.579Z,49.76
2018-02-24T08:11:47.686Z,49.97
2018-02-24T08:14:17.838Z,50.00
2018-02-24T08:16:46.954Z,49.92
2018-02-24T08:19:16.070Z,48.75
2018-02-24T08:21:45.188Z,48.69
2018-02-24T08:24:14.328Z,49.39
2018-02-24T08:26:44.203Z,48.70
2018-02-24T08:29:13.310Z,47.88
2018-02-24T08:31:44.134Z,48.04
2018-02-24T08:34:13.266Z,48.19
2018-02-24T08:36:42.372Z,47.84
2018-02-24T08:39:11.475Z,47.79
2018-02-24T08:41:40.585Z,47.57
2018-02-24T08:44:09.723Z,47.39
2018-02-24T08:46:39.598Z,47.26
2018-02-24T08:49:08.735Z,47.26
2018-02-24T08:51:38.629Z,46.69
2018-02-24T08:54:07.763Z,46.68
2018-02-24T08:56:36.862Z,46.55
2018-02-24T08:59:05.995Z,46.81
2018-02-24T09:01:35.109Z,46.45
2018-02-24T09:04:04.217Z,46.15
2018-02-24T09:06:33.321Z,45.96
2018-02-24T09:09:03.210Z,45.63
2018-02-24T09:11:32.324Z,45.35
2018-02-24T09:14:01.451Z,45.70
2018-02-24T09:16:31.317Z,45.42
2018-02-24T09:19:00.431Z,44.95
2018-02-24T09:21:29.561Z,45.27
2018-02-24T09:23:59.434Z,45.30
2018-02-24T09:26:28.573Z,44.98
2018-02-24T09:28:57.661Z,44.41
2018-02-24T09:31:27.578Z,44.91
2018-02-24T09:33:57.426Z,44.78
2018-02-24T09:36:27.456Z,44.11
2018-02-24T09:38:57.394Z,43.50
2018-02-24T09:41:26.521Z,43.71
2018-02-24T09:43:55.618Z,43.18
2018-02-24T09:46:25.507Z,43.10
2018-02-24T09:48:54.612Z,43.65
2018-02-24T09:51:23.760Z,43.71
2018-02-24T09:53:52.867Z,42.20
2018-02-24T09:56:21.975Z,42.08
2018-02-24T09:58:51.111Z,41.86
2018-02-24T10:01:21.996Z,41.95
2018-02-24T10:03:51.142Z,42.30
2018-02-24T10:06:21.485Z,41.42
2018-02-24T10:08:51.225Z,41.30
2018-02-24T10:11:21.117Z,40.82
2018-02-24T10:13:50.220Z,41.03
2018-02-24T10:16:19.326Z,41.79
2018-02-24T10:18:48.499Z,40.61
2018-02-24T10:21:17.603Z,39.91
2018-02-24T10:23:46.744Z,39.49
2018-02-24T10:26:15.871Z,39.67
2018-02-24T10:28:45.902Z,39.39
2018-02-24T10:31:15.023Z,38.64
2018-02-24T10:33:44.152Z,38.91
2018-02-24T10:36:14.055Z,38.75
2018-02-24T10:38:43.166Z,38.63
2018-02-24T10:41:12.285Z,38.43
2018-02-24T10:43:41.394Z,38.10
2018-02-24T10:46:10.524Z,37.71
2018-02-24T10:48:39.598Z,38.61
2018-02-24T10:51:08.738Z,37.20
2018-02-24T10:53:38.606Z,37.24
2018-02-24T10:56:07.715Z,37.64
2018-02-24T10:58:37.577Z,37.21
2018-02-24T11:01:07.463Z,36.91
2018-02-24T11:03:36.575Z,37.17
2018-02-24T11:06:15.592Z,36.58
2018-02-24T11:08:45.473Z,36.67
2018-02-24T11:11:14.601Z,36.46
2018-02-24T11:13:43.717Z,36.41
2018-02-24T11:16:13.614Z,36.22
2018-02-24T11:18:43.510Z,36.61
2018-02-24T11:21:12.647Z,36.40
2018-02-24T11:23:42.496Z,35.64
2018-02-24T11:26:11.641Z,35.30
2018-02-24T11:28:40.730Z,36.12
2018-02-24T11:31:10.606Z,36.10
2018-02-24T11:33:39.730Z,35.96
2018-02-24T11:36:10.006Z,36.62
2018-02-24T11:38:39.114Z,35.83
2018-02-24T11:41:08.203Z,35.36
2018-02-24T11:43:37.337Z,35.13
2018-02-24T11:46:06.455Z,34.73
2018-02-24T11:48:36.355Z,34.45
2018-02-24T11:51:05.466Z,34.41
2018-02-24T11:53:35.322Z,34.22
2018-02-24T11:56:04.441Z,33.58
2018-02-24T11:58:33.558Z,33.59
2018-02-24T12:01:03.262Z,33.44
2018-02-24T12:03:32.419Z,33.05
2018-02-24T12:06:01.565Z,33.93
2018-02-24T12:08:31.454Z,33.46
2018-02-24T12:11:00.578Z,33.46
2018-02-24T12:13:29.725Z,33.16
2018-02-24T12:15:58.840Z,33.02
2018-02-24T12:18:27.934Z,34.82
2018-02-24T12:20:57.072Z,33.89
2018-02-24T12:23:26.161Z,32.85
2018-02-24T12:25:56.043Z,32.87
2018-02-24T12:28:25.133Z,33.56
2018-02-24T12:30:54.289Z,32.60
2018-02-24T12:33:25.032Z,33.51
2018-02-24T12:35:54.901Z,33.06
2018-02-24T12:38:24.015Z,32.41
2018-02-24T12:40:53.144Z,32.99
2018-02-24T12:43:22.241Z,33.03
2018-02-24T12:45:51.413Z,33.15
2018-02-24T12:48:20.521Z,33.40
2018-02-24T12:50:50.414Z,33.80
2018-02-24T12:53:20.316Z,33.62
2018-02-24T12:55:49.437Z,33.51
2018-02-24T12:58:19.315Z,33.58
2018-02-24T13:00:48.410Z,33.54
2018-02-24T13:03:17.537Z,33.33
2018-02-24T13:05:47.407Z,33.71
2018-02-24T13:08:16.543Z,33.38
2018-02-24T13:10:45.621Z,34.08
2018-02-24T13:13:14.785Z,33.29
2018-02-24T13:15:43.878Z,33.14
2018-02-24T13:18:12.968Z,32.73
2018-02-24T13:20:42.105Z,32.83
2018-02-24T13:23:11.216Z,33.25
2018-02-24T13:25:40.329Z,33.99
2018-02-24T13:28:10.203Z,34.42
2018-02-24T13:30:40.091Z,32.93
2018-02-24T13:33:09.208Z,33.23
2018-02-24T13:35:38.361Z,32.77
2018-02-24T13:38:08.220Z,32.51
2018-02-24T13:40:38.106Z,32.63
2018-02-24T13:43:07.227Z,32.66
2018-02-24T13:45:36.348Z,33.04
2018-02-24T13:48:05.500Z,32.94
2018-02-24T13:50:34.621Z,32.54
2018-02-24T13:53:03.724Z,32.60
2018-02-24T13:55:32.866Z,32.87
2018-02-24T13:58:02.741Z,32.64
2018-02-24T14:00:31.863Z,32.56
2018-02-24T14:03:01.750Z,32.86
2018-02-24T14:05:30.941Z,32.36
2018-02-24T14:08:00.050Z,32.38
2018-02-24T14:10:29.137Z,32.44
2018-02-24T14:12:58.264Z,32.53
2018-02-24T14:15:28.152Z,32.44
2018-02-24T14:17:57.289Z,32.42
2018-02-24T14:20:27.178Z,32.07
2018-02-24T14:22:56.285Z,31.84
2018-02-24T14:25:25.394Z,32.00
2018-02-24T14:27:55.283Z,31.89
2018-02-24T14:30:24.398Z,32.05
2018-02-24T14:32:54.258Z,31.70
2018-02-24T14:35:27.103Z,31.41
2018-02-24T14:37:56.972Z,31.25
2018-02-24T14:40:26.107Z,31.25
2018-02-24T14:42:55.986Z,31.23
2018-02-24T14:45:25.095Z,30.91
2018-02-24T14:47:54.862Z,28.37
2018-02-24T14:50:23.969Z,25.18
2018-02-24T14:52:53.099Z,22.09
2018-02-24T14:55:22.224Z,21.24
2018-02-24T14:57:52.149Z,21.09
2018-02-24T15:00:21.300Z,20.59
2018-02-24T15:02:50.452Z,20.24
2018-02-24T15:05:19.549Z,19.69
2018-02-24T15:07:49.235Z,20.37
2018-02-24T15:10:19.133Z,20.15
2018-02-24T15:12:48.260Z,20.27
2018-02-24T15:15:17.436Z,20.99
2018-02-24T15:17:46.574Z,20.75
2018-02-24T15:20:15.757Z,21.59
2018-02-24T15:22:44.947Z,21.30
2018-02-24T15:25:14.066Z,20.77
2018-02-24T15:27:43.715Z,20.53
2018-02-24T15:30:12.884Z,21.00
2018-02-24T15:32:42.023Z,21.20
2018-02-24T15:35:12.678Z,22.69
2018-02-24T15:37:42.579Z,25.01
2018-02-24T15:40:13.566Z,27.95
2018-02-24T15:42:42.690Z,29.27
2018-02-24T15:45:11.795Z,28.55
2018-02-24T15:47:40.933Z,26.83
2018-02-24T15:50:10.061Z,26.10
2018-02-24T15:52:39.185Z,26.16
2018-02-24T15:55:08.290Z,27.67
2018-02-24T15:57:38.175Z,30.05
2018-02-24T16:00:07.280Z,32.07
2018-02-24T16:02:37.128Z,33.78
2018-02-24T16:05:07.007Z,34.47
2018-02-24T16:07:36.185Z,35.34
2018-02-24T16:10:05.306Z,35.82
2018-02-24T16:12:34.393Z,36.23
2018-02-24T16:15:03.532Z,36.75
2018-02-24T16:17:32.646Z,37.24
2018-02-24T16:20:01.758Z,37.72
2018-02-24T16:22:30.891Z,38.08
2018-02-24T16:25:00.016Z,38.51
2018-02-24T16:27:29.896Z,38.85
2018-02-24T16:29:59.021Z,39.11
2018-02-24T16:32:28.904Z,38.76
2018-02-24T16:34:58.036Z,38.61
2018-02-24T16:37:27.922Z,38.50
2018-02-24T16:39:57.054Z,38.60
2018-02-24T16:42:26.930Z,38.91
2018-02-24T16:44:56.229Z,39.02
2018-02-24T16:47:25.326Z,39.33
2018-02-24T16:49:54.453Z,39.49
2018-02-24T16:52:24.318Z,39.59
2018-02-24T16:54:53.450Z,39.74
2018-02-24T16:57:23.323Z,39.76
2018-02-24T16:59:52.442Z,39.82
2018-02-24T17:02:21.596Z,40.16
2018-02-24T17:04:50.762Z,40.22
2018-02-24T17:07:19.855Z,40.25
2018-02-24T17:09:48.982Z,40.67
2018-02-24T17:12:18.119Z,40.80
2018-02-24T17:14:47.218Z,41.08
2018-02-24T17:17:16.375Z,41.15
2018-02-24T17:19:46.243Z,41.31
2018-02-24T17:22:15.380Z,41.47
2018-02-24T17:24:44.497Z,41.60
2018-02-24T17:27:13.630Z,41.44
2018-02-24T17:29:43.013Z,41.41
2018-02-24T17:32:12.116Z,41.74
2018-02-24T17:34:46.276Z,41.73
2018-02-24T17:37:16.156Z,41.78
2018-02-24T17:39:46.067Z,42.02
2018-02-24T17:42:15.189Z,42.01
2018-02-24T17:44:44.337Z,42.24
2018-02-24T17:47:14.456Z,42.32
2018-02-24T17:49:43.562Z,42.51
2018-02-24T17:52:12.683Z,42.45
2018-02-24T17:54:41.818Z,42.28
2018-02-24T17:57:10.926Z,41.51
2018-02-24T17:59:40.055Z,41.28
2018-02-24T18:02:09.930Z,41.18
2018-02-24T18:04:39.104Z,41.42
2018-02-24T18:07:08.213Z,41.68
2018-02-24T18:09:38.090Z,41.35
2018-02-24T18:12:07.235Z,41.56
2018-02-24T18:14:37.115Z,41.77
2018-02-24T18:17:06.246Z,41.48
2018-02-24T18:19:35.357Z,41.38
2018-02-24T18:22:05.270Z,41.50
2018-02-24T18:24:35.445Z,41.12
2018-02-24T18:27:04.580Z,40.84
2018-02-24T18:29:34.443Z,40.97
2018-02-24T18:32:03.579Z,40.83
2018-02-24T18:34:33.435Z,41.04
2018-02-24T18:37:02.541Z,41.17
2018-02-24T18:39:32.471Z,40.74
2018-02-24T18:42:01.582Z,40.94
2018-02-24T18:44:31.519Z,40.74
2018-02-24T18:47:00.616Z,40.89
2018-02-24T18:49:29.743Z,40.57
2018-02-24T18:51:58.846Z,40.33
2018-02-24T18:54:27.988Z,40.25
2018-02-24T18:56:57.127Z,39.95
2018-02-24T18:59:26.243Z,39.96
2018-02-24T19:01:57.073Z,40.04
2018-02-24T19:04:26.193Z,39.90
2018-02-24T19:06:55.328Z,40.00
2018-02-24T19:09:25.217Z,39.74
2018-02-24T19:11:54.323Z,39.82
2018-02-24T19:14:24.237Z,39.71
2018-02-24T19:16:53.305Z,39.64
2018-02-24T19:19:22.412Z,39.37
2018-02-24T19:21:52.474Z,39.21
2018-02-24T19:24:21.572Z,39.33
2018-02-24T19:26:50.712Z,39.46
2018-02-24T19:29:19.817Z,39.33
2018-02-24T19:31:48.930Z,39.01
2018-02-24T19:34:18.802Z,39.22
2018-02-24T19:36:47.938Z,39.07
2018-02-24T19:39:17.041Z,39.10
2018-02-24T19:41:46.926Z,39.03
2018-02-24T19:44:16.031Z,39.17
2018-02-24T19:46:45.156Z,39.27
2018-02-24T19:49:15.061Z,39.04
2018-02-24T19:51:44.903Z,39.01
2018-02-24T19:54:14.019Z,39.41
2018-02-24T19:56:43.145Z,39.26
2018-02-24T19:59:12.264Z,39.32
2018-02-24T20:01:42.146Z,39.23
2018-02-24T20:04:11.267Z,39.22
2018-02-24T20:06:40.526Z,39.25
2018-02-24T20:09:09.632Z,39.18
2018-02-24T20:11:38.754Z,39.22
2018-02-24T20:14:08.658Z,39.17
2018-02-24T20:16:37.781Z,39.24
2018-02-24T20:19:08.135Z,39.10
2018-02-24T20:21:37.250Z,39.22
2018-02-24T20:24:06.392Z,39.26
2018-02-24T20:26:35.506Z,40.71
2018-02-24T20:29:04.628Z,39.32
2018-02-24T20:31:33.750Z,39.23
2018-02-24T20:34:02.883Z,39.21
2018-02-24T20:36:32.773Z,39.44
2018-02-24T20:39:01.913Z,39.43
2018-02-24T20:41:31.782Z,39.43
2018-02-24T20:44:04.310Z,39.38
2018-02-24T20:46:34.227Z,39.32
2018-02-24T20:49:03.316Z,39.32
2018-02-24T20:51:33.318Z,39.39
2018-02-24T20:54:02.450Z,39.31
2018-02-24T20:56:31.585Z,39.36
2018-02-24T20:59:00.699Z,39.37
2018-02-24T21:01:29.816Z,39.46
2018-02-24T21:04:00.402Z,39.37
2018-02-24T21:06:29.539Z,39.30
2018-02-24T21:08:58.674Z,39.35
2018-02-24T21:11:27.803Z,39.37
2018-02-24T21:13:56.918Z,39.47
2018-02-24T21:16:26.841Z,39.42
2018-02-24T21:18:56.732Z,39.57
2018-02-24T21:21:25.819Z,39.50
2018-02-24T21:23:54.972Z,39.56
2018-02-24T21:26:24.090Z,39.73
2018-02-24T21:28:53.217Z,39.70
2018-02-24T21:31:22.344Z,39.76
2018-02-24T21:33:52.227Z,39.74
2018-02-24T21:36:21.328Z,39.71
2018-02-24T21:38:50.486Z,39.58
2018-02-24T21:41:19.594Z,39.60
2018-02-24T21:43:48.702Z,39.58
2018-02-24T21:46:18.616Z,39.87
2018-02-24T21:48:47.739Z,39.60
2018-02-24T21:51:17.662Z,39.88
2018-02-24T21:53:46.844Z,39.85
2018-02-24T21:56:16.548Z,39.55
2018-02-24T21:58:45.691Z,39.41
2018-02-24T22:01:14.790Z,39.63
2018-02-24T22:03:43.922Z,39.60
2018-02-24T22:06:13.969Z,39.53
2018-02-24T22:08:43.793Z,39.50
2018-02-24T22:11:13.660Z,39.63
2018-02-24T22:13:42.768Z,39.71
2018-02-24T22:16:11.882Z,39.80
2018-02-24T22:18:41.008Z,39.69
2018-02-24T22:21:10.892Z,39.69
2018-02-24T22:23:40.001Z,39.67
2018-02-24T22:26:09.115Z,39.90
2018-02-24T22:28:38.982Z,39.83
2018-02-24T22:31:08.113Z,39.96
2018-02-24T22:33:38.279Z,40.12
2018-02-24T22:36:07.403Z,40.43
2018-02-24T22:38:36.487Z,40.30
2018-02-24T22:41:05.617Z,40.18
2018-02-24T22:43:34.727Z,40.34
2018-02-24T22:46:04.613Z,40.43
2018-02-24T23:02:01.090Z,41.20
2018-02-24T23:04:30.193Z,40.86
2018-02-24T23:07:00.176Z,41.01
2018-02-24T23:09:29.264Z,41.33
2018-02-24T23:11:58.379Z,40.95
2018-02-24T23:14:27.469Z,40.82
2018-02-24T23:16:57.346Z,41.28
2018-02-24T23:19:26.429Z,41.05
2018-02-24T23:21:55.563Z,41.23
2018-02-24T23:24:24.641Z,41.11
2018-02-24T23:26:53.732Z,41.15
2018-02-24T23:29:22.854Z,41.54
2018-02-24T23:31:52.730Z,41.13
2018-02-24T23:34:21.862Z,41.22
2018-02-24T23:36:50.985Z,41.34
2018-02-24T23:39:20.082Z,40.93
2018-02-24T23:41:49.233Z,40.61
2018-02-24T23:44:18.590Z,40.85
2018-02-24T23:46:47.678Z,39.83
2018-02-24T23:49:16.798Z,39.00
2018-02-24T23:51:45.895Z,39.13
2018-02-24T23:54:15.016Z,39.41
2018-02-24T23:56:44.968Z,39.03
2018-02-24T23:59:14.064Z,39.12
